Colfax, New Mexico
Current Conditions -  °F | °C
As of 4:53 AM on Monday 20 Oct 2014 (Local Time) from KRTN Reporting Station
Broken Clouds Broken Clouds  
Wind Chill: 34°   Ceiling: 10000
Heat Index: 40°   Visibility: 10mi
Dew Point: 35°   Wind: 9mph
Humidity: 83%   Direction: 70°ENE
Pressure: 30.21"   Gusts: NA
Location:  36.7885°N, 104.452°W
Report Text: KRTN 201053Z AUTO 07008KT 10SM BKN100 04/02 A3021 RMK AO2 SLP173 T00440017
Loading
Personal Weather Stations






























Interactive Weather Map
Tropical Storm Tracking
New forecast layout! Learn more

10-Day Weather Forecast

Advertisements
Track Severe Weather on mobile